Time;durP1;ratioP1;P1;durP2;ratioP2;P2;SDS_P1;SDS_P2;PMS_P1;PMS_P2;Temp;Humidity;BMP_temperature;BMP_pressure;BME280_temperature;BME280_humidity;BME280_pressure;Samples;Min_cycle;Max_cycle;Signal;HPM_P1;HPM_P2
2022/11/23 00:00:48;;;;;;;0.88;0.88;;;20.80;45.20;;;;;;4991683;28;20050;-67
2022/11/23 00:03:15;;;;;;;1.35;1.00;;;20.80;45.20;;;;;;4990936;28;20054;-67
2022/11/23 00:05:42;;;;;;;0.95;0.95;;;20.70;45.20;;;;;;4991524;28;20045;-67
2022/11/23 00:08:09;;;;;;;0.82;0.82;;;20.80;45.20;;;;;;4991627;28;20053;-66
2022/11/23 00:10:36;;;;;;;1.38;1.17;;;20.70;45.20;;;;;;4991589;28;20400;-66
2022/11/23 00:13:03;;;;;;;1.58;0.75;;;20.70;45.20;;;;;;4992214;28;20060;-66
2022/11/23 00:15:34;;;;;;;1.60;1.20;;;20.70;45.20;;;;;;4991047;28;20493;-66
2022/11/23 00:18:01;;;;;;;1.20;1.10;;;20.70;45.20;;;;;;4975101;28;20054;-67
2022/11/23 00:20:28;;;;;;;1.20;1.10;;;20.70;45.20;;;;;;4990632;28;20204;-66
2022/11/23 00:22:55;;;;;;;2.67;0.90;;;20.70;45.20;;;;;;4974855;28;20068;-67
2022/11/23 00:25:22;;;;;;;1.00;0.90;;;20.70;45.20;;;;;;4991180;28;20174;-67
2022/11/23 00:27:49;;;;;;;1.10;1.00;;;20.70;45.10;;;;;;4973958;28;20077;-67
2022/11/23 00:30:16;;;;;;;1.13;0.88;;;20.70;45.10;;;;;;4995497;28;20050;-63
2022/11/23 00:32:43;;;;;;;0.70;0.70;;;20.70;45.10;;;;;;4978019;28;20054;-66
2022/11/23 00:35:10;;;;;;;0.95;0.88;;;20.70;45.10;;;;;;4994571;28;20519;-67
2022/11/23 00:37:37;;;;;;;1.55;1.08;;;20.70;45.00;;;;;;4994989;28;20053;-67
2022/11/23 00:40:05;;;;;;;1.08;1.02;;;20.70;45.10;;;;;;4994197;28;20088;-66
2022/11/23 00:42:32;;;;;;;1.10;0.70;;;20.70;45.00;;;;;;4994862;28;20122;-66
2022/11/23 00:45:04;;;;;;;0.60;0.60;;;20.70;45.10;;;;;;4995401;28;20201;-67
2022/11/23 00:47:31;;;;;;;0.77;0.70;;;20.70;45.10;;;;;;4995738;28;20057;-67
2022/11/23 00:49:58;;;;;;;1.85;0.93;;;20.70;45.10;;;;;;4995095;28;20409;-67
2022/11/23 00:52:25;;;;;;;0.70;0.70;;;20.70;45.10;;;;;;4994580;28;20516;-67
2022/11/23 00:54:52;;;;;;;0.85;0.85;;;20.70;45.10;;;;;;4977653;28;20057;-67
2022/11/23 00:57:19;;;;;;;1.17;1.05;;;20.70;45.10;;;;;;4995301;28;20054;-67
2022/11/23 00:59:48;;;;;;;1.00;0.85;;;20.60;45.10;;;;;;4990603;28;20073;-67
2022/11/23 01:02:16;;;;;;;1.05;0.70;;;20.60;45.10;;;;;;4994013;28;20047;-67
2022/11/23 01:04:43;;;;;;;0.70;0.70;;;20.70;45.10;;;;;;4994847;28;20046;-67
2022/11/23 01:07:10;;;;;;;0.77;0.75;;;20.60;45.10;;;;;;4994689;28;20050;-67
2022/11/23 01:09:37;;;;;;;1.20;0.80;;;20.60;45.10;;;;;;4994407;28;20053;-67
2022/11/23 01:12:04;;;;;;;1.17;0.85;;;20.60;45.10;;;;;;4994520;28;20050;-67
2022/11/23 01:14:31;;;;;;;1.10;1.00;;;20.60;45.10;;;;;;4978049;28;20042;-68
2022/11/23 01:16:58;;;;;;;0.68;0.68;;;20.60;45.10;;;;;;4994068;28;20493;-67
2022/11/23 01:19:27;;;;;;;1.38;0.93;;;20.60;45.20;;;;;;4994557;28;20079;-67
2022/11/23 01:21:54;;;;;;;0.77;0.77;;;20.60;45.10;;;;;;4994865;28;20524;-67
2022/11/23 01:24:22;;;;;;;0.82;0.47;;;20.60;45.10;;;;;;4995002;28;20057;-67
2022/11/23 01:26:54;;;;;;;0.77;0.70;;;20.60;45.20;;;;;;4993916;28;20043;-67
2022/11/23 01:29:22;;;;;;;1.45;1.05;;;20.60;45.10;;;;;;4977306;28;20516;-67
2022/11/23 01:31:49;;;;;;;0.70;0.70;;;20.60;45.20;;;;;;4989822;28;20441;-64
2022/11/23 01:34:16;;;;;;;0.70;0.63;;;20.60;45.20;;;;;;4993973;28;20405;-67
2022/11/23 01:36:44;;;;;;;2.50;0.70;;;20.60;45.20;;;;;;4994443;28;20073;-67
2022/11/23 01:39:11;;;;;;;0.88;0.77;;;20.60;45.20;;;;;;4976086;28;20050;-67
2022/11/23 01:41:42;;;;;;;0.68;0.68;;;20.60;45.20;;;;;;4976593;28;20050;-63
2022/11/23 01:44:29;;;;;;;;;;;20.60;45.20;;;;;;4994879;28;20401;-67
2022/11/23 01:46:59;;;;;;;1.15;1.05;;;20.60;45.20;;;;;;4993382;28;20573;-67
2022/11/23 01:49:38;;;;;;;0.77;0.77;;;20.60;45.20;;;;;;4976789;28;20050;-67
2022/11/23 01:52:19;;;;;;;0.65;0.57;;;20.60;45.20;;;;;;4978482;28;20472;-67
2022/11/23 01:54:53;;;;;;;1.08;1.00;;;20.60;45.20;;;;;;4976694;28;20050;-67
2022/11/23 01:57:26;;;;;;;1.30;0.80;;;20.60;45.20;;;;;;4977627;28;20046;-66
2022/11/23 01:59:54;;;;;;;1.38;0.80;;;20.50;45.20;;;;;;4993383;28;20069;-66
2022/11/23 02:02:21;;;;;;;0.77;0.77;;;20.50;45.20;;;;;;4993452;28;20363;-63
2022/11/23 02:04:51;;;;;;;0.75;0.73;;;20.50;45.20;;;;;;4989413;28;20050;-66
2022/11/23 02:07:19;;;;;;;0.82;0.80;;;20.50;45.20;;;;;;4993731;28;20057;-67
2022/11/23 02:09:47;;;;;;;0.95;0.80;;;20.60;45.20;;;;;;4993530;28;20046;-67
2022/11/23 02:12:14;;;;;;;0.82;0.63;;;20.50;45.20;;;;;;4993740;28;20061;-67
2022/11/23 02:14:42;;;;;;;0.68;0.65;;;20.60;45.20;;;;;;4994069;28;20053;-67
2022/11/23 02:17:09;;;;;;;0.90;0.45;;;20.60;45.20;;;;;;4993344;28;20185;-67
2022/11/23 02:19:54;;;;;;;0.55;0.55;;;20.50;45.20;;;;;;4975801;28;20050;-67
2022/11/23 02:22:52;;;;;;;0.50;0.50;;;20.50;45.20;;;;;;4978198;28;20065;-67
2022/11/23 02:25:55;;;;;;;0.63;0.57;;;20.60;45.30;;;;;;4992949;28;20058;-67
2022/11/23 02:28:27;;;;;;;1.00;0.73;;;20.60;45.30;;;;;;4993654;28;20508;-67
2022/11/23 02:30:55;;;;;;;0.70;0.65;;;20.60;45.20;;;;;;4976671;28;20666;-67
2022/11/23 02:33:24;;;;;;;0.70;0.70;;;20.60;45.30;;;;;;4993433;28;20563;-67
2022/11/23 02:35:54;;;;;;;0.75;0.75;;;20.50;45.20;;;;;;4974559;28;20441;-67
2022/11/23 02:38:24;;;;;;;0.60;0.60;;;20.60;45.20;;;;;;4973365;28;20042;-67
2022/11/23 02:40:51;;;;;;;0.80;0.80;;;20.60;45.20;;;;;;4975791;28;20671;-67
2022/11/23 02:43:18;;;;;;;0.47;0.43;;;20.60;45.20;;;;;;4992700;28;20477;-67
2022/11/23 02:45:51;;;;;;;0.45;0.45;;;20.60;45.20;;;;;;4975436;28;20535;-67
2022/11/23 02:48:19;;;;;;;0.60;0.60;;;20.60;45.20;;;;;;4954364;29;20047;-67
2022/11/23 02:50:46;;;;;;;0.60;0.60;;;20.60;45.20;;;;;;4936905;29;20065;-67
2022/11/23 02:53:14;;;;;;;0.85;0.82;;;20.60;45.10;;;;;;4937052;29;20055;-67
2022/11/23 02:55:41;;;;;;;0.77;0.77;;;20.60;45.60;;;;;;4954234;28;20102;-67
2022/11/23 02:58:08;;;;;;;0.60;0.60;;;20.60;45.10;;;;;;4937393;29;20059;-67
2022/11/23 03:00:35;;;;;;;0.57;0.57;;;20.60;45.60;;;;;;4954026;28;20062;-67
2022/11/23 03:03:04;;;;;;;0.65;0.57;;;20.60;45.10;;;;;;4937422;29;20051;-67
2022/11/23 03:05:31;;;;;;;0.60;0.60;;;20.50;45.00;;;;;;4954240;28;20081;-67
2022/11/23 03:07:58;;;;;;;0.60;0.60;;;20.60;45.10;;;;;;4954210;29;20055;-67
2022/11/23 03:10:25;;;;;;;0.73;0.73;;;20.60;45.10;;;;;;4949437;28;20070;-67
2022/11/23 03:12:56;;;;;;;0.80;0.50;;;20.50;45.00;;;;;;4953658;29;20755;-66
2022/11/23 03:15:23;;;;;;;0.40;0.40;;;20.60;45.10;;;;;;4953511;28;20051;-67
2022/11/23 03:17:51;;;;;;;0.63;0.63;;;20.50;45.10;;;;;;4953920;29;20497;-66
2022/11/23 03:20:18;;;;;;;0.47;0.47;;;20.50;45.10;;;;;;4953597;28;20067;-67
2022/11/23 03:22:46;;;;;;;1.00;0.70;;;20.50;45.10;;;;;;4953672;29;20051;-67
2022/11/23 03:25:13;;;;;;;0.60;0.60;;;20.50;45.10;;;;;;4953638;28;20047;-67
2022/11/23 03:27:40;;;;;;;0.40;0.40;;;20.50;45.10;;;;;;4967114;28;20265;-67
2022/11/23 03:30:08;;;;;;;0.40;0.40;;;20.50;45.20;;;;;;4972964;28;20049;-67
2022/11/23 03:32:35;;;;;;;0.68;0.40;;;20.50;45.20;;;;;;4973144;28;20420;-67
2022/11/23 03:35:04;;;;;;;0.70;0.63;;;20.50;45.20;;;;;;4972652;28;20057;-67
2022/11/23 03:37:31;;;;;;;0.60;0.60;;;20.50;45.20;;;;;;4939866;28;20054;-67
2022/11/23 03:39:58;;;;;;;0.35;0.35;;;20.50;45.20;;;;;;4972527;28;20043;-67
2022/11/23 03:42:25;;;;;;;0.47;0.47;;;20.50;45.20;;;;;;4968894;28;20051;-67
2022/11/23 03:44:52;;;;;;;0.70;0.60;;;20.50;45.20;;;;;;4955552;28;20050;-67
2022/11/23 03:47:19;;;;;;;0.40;0.40;;;20.50;45.80;;;;;;4972894;28;20047;-67
2022/11/23 03:49:47;;;;;;;0.50;0.50;;;20.50;45.20;;;;;;4955536;28;20194;-67
2022/11/23 03:52:14;;;;;;;0.70;0.70;;;20.50;45.30;;;;;;4972469;28;20062;-67
2022/11/23 03:54:41;;;;;;;1.27;0.90;;;20.40;45.20;;;;;;4972715;28;20062;-67
2022/11/23 03:57:08;;;;;;;0.55;0.55;;;20.50;45.30;;;;;;4972695;28;20047;-67
2022/11/23 03:59:35;;;;;;;0.50;0.50;;;20.40;45.20;;;;;;4972858;28;20058;-67
2022/11/23 04:02:02;;;;;;;1.65;0.60;;;20.50;45.30;;;;;;4943973;28;20061;-67
2022/11/23 04:04:29;;;;;;;0.50;0.50;;;20.40;45.20;;;;;;4978906;28;20047;-67
2022/11/23 04:06:56;;;;;;;0.50;0.50;;;20.50;45.30;;;;;;4979125;28;20073;-67
2022/11/23 04:09:23;;;;;;;0.55;0.55;;;20.50;45.30;;;;;;4978817;28;20054;-67
2022/11/23 04:11:50;;;;;;;0.63;0.63;;;20.40;45.20;;;;;;4978662;28;20513;-67
2022/11/23 04:14:17;;;;;;;0.43;0.43;;;20.40;45.20;;;;;;4974338;28;20050;-67
2022/11/23 04:16:44;;;;;;;0.60;0.50;;;20.40;45.20;;;;;;4961693;28;20046;-67
2022/11/23 04:19:11;;;;;;;0.40;0.40;;;20.40;45.20;;;;;;4978910;28;20129;-67
2022/11/23 04:21:38;;;;;;;0.40;0.40;;;20.40;45.20;;;;;;4961819;28;20057;-66
2022/11/23 04:24:06;;;;;;;0.30;0.30;;;20.40;45.40;;;;;;4978610;28;20506;-66
2022/11/23 04:26:33;;;;;;;0.50;0.50;;;20.40;45.20;;;;;;4978395;28;20043;-66
2022/11/23 04:29:00;;;;;;;0.40;0.40;;;20.40;45.30;;;;;;4978348;28;20050;-67
2022/11/23 04:31:27;;;;;;;0.63;0.63;;;20.40;45.30;;;;;;4978606;28;20043;-66
2022/11/23 04:33:56;;;;;;;0.60;0.60;;;20.40;45.30;;;;;;4944876;28;20503;-66
2022/11/23 04:36:23;;;;;;;0.57;0.57;;;20.40;45.30;;;;;;4978892;28;20047;-66
2022/11/23 04:38:50;;;;;;;0.47;0.45;;;20.40;45.30;;;;;;4961807;28;20042;-66
2022/11/23 04:41:17;;;;;;;0.50;0.50;;;20.40;45.30;;;;;;4961095;28;20055;-66
2022/11/23 04:43:47;;;;;;;0.40;0.35;;;20.40;45.30;;;;;;4961607;28;20397;-66
2022/11/23 04:46:14;;;;;;;0.50;0.50;;;20.40;45.30;;;;;;4955553;28;20057;-67
2022/11/23 04:48:41;;;;;;;0.82;0.82;;;20.40;45.30;;;;;;4976911;28;20053;-67
2022/11/23 04:51:09;;;;;;;0.30;0.30;;;20.40;45.30;;;;;;4960214;28;20444;-66
2022/11/23 04:53:36;;;;;;;0.50;0.50;;;20.50;45.40;;;;;;4978715;28;20054;-66
2022/11/23 04:56:03;;;;;;;0.47;0.47;;;20.40;45.30;;;;;;4978172;28;20046;-67
2022/11/23 04:58:30;;;;;;;0.47;0.30;;;20.40;45.30;;;;;;4961494;28;20055;-67
2022/11/23 05:01:00;;;;;;;0.80;0.70;;;20.40;45.30;;;;;;4978736;28;20405;-67
2022/11/23 05:03:27;;;;;;;0.40;0.40;;;20.40;45.30;;;;;;4961635;28;20051;-67
2022/11/23 05:05:57;;;;;;;0.88;0.70;;;20.40;45.30;;;;;;4957806;28;20061;-67
2022/11/23 05:08:24;;;;;;;0.20;0.20;;;20.40;45.30;;;;;;4959046;29;20047;-67
2022/11/23 05:10:52;;;;;;;0.65;0.65;;;20.40;45.30;;;;;;4958646;28;20061;-68
2022/11/23 05:13:19;;;;;;;0.40;0.40;;;20.40;45.30;;;;;;4960270;28;20252;-67
2022/11/23 05:15:46;;;;;;;0.50;0.50;;;20.50;45.30;;;;;;4974483;28;20057;-66
2022/11/23 05:18:13;;;;;;;0.35;0.35;;;20.40;45.10;;;;;;4970878;28;20420;-66
2022/11/23 05:20:40;;;;;;;0.35;0.35;;;20.40;45.10;;;;;;4975178;28;20046;-66
2022/11/23 05:23:08;;;;;;;0.40;0.35;;;20.40;45.10;;;;;;4957655;28;20046;-66
2022/11/23 05:25:35;;;;;;;0.40;0.40;;;20.40;45.10;;;;;;4973977;28;20047;-66
2022/11/23 05:28:02;;;;;;;0.40;0.40;;;20.40;45.00;;;;;;4975221;28;20051;-66
2022/11/23 05:30:49;;;;;;;0.40;0.40;;;20.40;45.00;;;;;;4974636;28;20505;-67
2022/11/23 05:33:16;;;;;;;0.30;0.30;;;20.40;45.00;;;;;;4970754;28;20055;-66
2022/11/23 05:35:44;;;;;;;0.47;0.47;;;20.40;45.00;;;;;;4972868;28;20047;-67
2022/11/23 05:38:11;;;;;;;1.67;0.47;;;20.40;44.90;;;;;;4957315;28;20414;-67
2022/11/23 05:40:38;;;;;;;0.52;0.52;;;20.40;44.80;;;;;;4974370;28;20135;-67
2022/11/23 05:43:05;;;;;;;0.50;0.50;;;20.40;44.70;;;;;;4974485;28;20051;-66
2022/11/23 05:45:32;;;;;;;0.70;0.70;;;20.50;44.70;;;;;;4954473;28;20055;-67
2022/11/23 05:47:59;;;;;;;0.50;0.50;;;20.40;44.50;;;;;;4973853;28;20039;-66
2022/11/23 05:50:27;;;;;;;1.30;0.85;;;20.50;44.50;;;;;;4953111;28;20050;-67
2022/11/23 05:52:56;;;;;;;0.50;0.50;;;20.50;44.40;;;;;;4973721;28;20120;-67
2022/11/23 05:55:23;;;;;;;0.50;0.50;;;20.50;44.40;;;;;;4972633;28;20268;-67
2022/11/23 05:57:51;;;;;;;0.65;0.60;;;20.40;44.40;;;;;;4956583;28;20054;-67
2022/11/23 06:00:18;;;;;;;0.32;0.30;;;20.40;44.50;;;;;;4974271;28;20054;-67
2022/11/23 06:02:45;;;;;;;0.50;0.50;;;20.40;44.50;;;;;;4974340;28;20106;-67
2022/11/23 06:05:12;;;;;;;0.40;0.40;;;20.40;44.50;;;;;;4973278;28;20054;-67
2022/11/23 06:07:40;;;;;;;0.90;0.55;;;20.40;44.50;;;;;;4968604;28;20478;-67
2022/11/23 06:10:07;;;;;;;0.55;0.55;;;20.40;44.60;;;;;;4971051;28;20535;-67
2022/11/23 06:12:34;;;;;;;0.50;0.50;;;20.40;44.50;;;;;;4971128;28;20934;-63
2022/11/23 06:15:02;;;;;;;0.50;0.50;;;20.40;44.60;;;;;;4956521;28;20039;-63
2022/11/23 06:17:31;;;;;;;0.68;0.40;;;20.40;44.60;;;;;;4971039;28;20051;-66
2022/11/23 06:19:58;;;;;;;0.63;0.63;;;20.40;44.60;;;;;;4971307;28;20062;-67
2022/11/23 06:22:26;;;;;;;0.50;0.50;;;20.30;44.50;;;;;;4956165;29;20520;-67
2022/11/23 06:24:53;;;;;;;0.95;0.55;;;20.30;44.50;;;;;;4971200;28;20401;-65
2022/11/23 06:27:21;;;;;;;0.43;0.43;;;20.40;44.50;;;;;;4955209;28;20061;-64
2022/11/23 06:33:26;;;;;;;0.60;0.60;;;20.40;44.70;;;;;;4961092;28;20422;-65
2022/11/23 06:35:55;;;;;;;1.08;0.65;;;20.40;44.80;;;;;;4972122;28;20050;-69
2022/11/23 06:38:23;;;;;;;0.60;0.60;;;20.40;45.00;;;;;;4961351;28;20497;-66
2022/11/23 06:40:50;;;;;;;0.70;0.70;;;20.50;45.00;;;;;;4977913;28;20050;-64
2022/11/23 06:43:17;;;;;;;0.75;0.70;;;20.50;45.00;;;;;;4978247;28;20059;-70
2022/11/23 06:45:44;;;;;;;1.42;1.00;;;20.50;45.00;;;;;;4977978;28;20051;-68
2022/11/23 06:48:11;;;;;;;1.25;0.85;;;20.50;45.00;;;;;;4977384;28;20057;-66
2022/11/23 06:50:38;;;;;;;1.20;1.10;;;20.50;45.00;;;;;;4977469;28;20118;-68
2022/11/23 06:53:06;;;;;;;4.47;0.70;;;20.60;44.90;;;;;;4978105;28;20058;-66
2022/11/23 06:55:33;;;;;;;2.45;0.80;;;20.60;44.90;;;;;;4976269;28;20485;-65
2022/11/23 06:58:54;;;;;;;1.33;0.93;;;20.60;44.80;;;;;;4975556;28;20051;-66
2022/11/23 07:04:34;;;;;;;1.38;1.15;;;20.60;44.80;;;;;;6037846;23;20032;-69
2022/11/23 07:07:01;;;;;;;4.50;1.02;;;20.60;44.90;;;;;;4996857;28;20058;-69
2022/11/23 07:13:19;;;;;;;5.25;0.93;;;20.70;45.50;;;;;;4989060;28;20088;-64
2022/11/23 07:15:46;;;;;;;2.30;1.27;;;20.70;45.70;;;;;;4996465;28;20052;-71
2022/11/23 07:18:13;;;;;;;1.27;1.17;;;20.70;45.90;;;;;;4996840;28;20064;-64
2022/11/23 07:20:40;;;;;;;1.10;1.00;;;20.80;46.00;;;;;;4979522;28;20050;-68
2022/11/23 07:23:22;;;;;;;1.85;1.00;;;20.80;46.10;;;;;;4996268;28;20452;-67
2022/11/23 07:25:49;;;;;;;1.83;0.90;;;20.90;46.10;;;;;;4995809;28;20080;-67
2022/11/23 07:28:19;;;;;;;0.70;0.70;;;21.00;45.80;;;;;;4996288;28;20051;-67
2022/11/23 07:30:49;;;;;;;2.30;1.10;;;21.00;45.50;;;;;;4996035;28;20052;-67
2022/11/23 07:33:16;;;;;;;5.43;1.70;;;21.10;45.40;;;;;;4998095;28;20061;-65
2022/11/23 07:35:43;;;;;;;5.10;0.93;;;21.10;45.60;;;;;;4995737;28;20507;-69
2022/11/23 07:39:13;;;;;;;1.20;1.13;;;21.20;45.70;;;;;;4996262;28;20404;-64
2022/11/23 07:41:48;;;;;;;2.47;1.35;;;21.30;45.70;;;;;;4996631;28;20046;-65
2022/11/23 07:44:17;;;;;;;1.92;1.45;;;21.30;45.50;;;;;;4997607;28;20073;-65
2022/11/23 07:55:06;;;;;;;2.25;1.67;;;21.50;45.30;;;;;;5778044;23;20054;-72
2022/11/23 07:57:33;;;;;;;1.75;1.33;;;21.60;44.50;;;;;;4996155;28;20057;-69
2022/11/23 08:00:47;;;;;;;2.47;1.45;;;21.60;44.40;;;;;;4992509;28;20073;-65
2022/11/23 08:06:15;;;;;;;1.55;1.40;;;21.70;44.40;;;;;;5268808;23;20054;-71
2022/11/23 08:08:42;;;;;;;4.28;1.42;;;21.70;44.40;;;;;;4962909;28;20054;-67
2022/11/23 08:11:13;;;;;;;1.45;1.35;;;21.80;44.30;;;;;;4996493;28;20057;-74
2022/11/23 08:13:40;;;;;;;2.25;1.20;;;21.80;44.20;;;;;;4995878;28;20133;-66
2022/11/23 08:16:07;;;;;;;2.00;1.38;;;21.80;44.00;;;;;;4996455;28;20481;-69
2022/11/23 08:18:34;;;;;;;2.72;1.40;;;21.80;44.00;;;;;;4995454;28;20050;-67
2022/11/23 08:21:02;;;;;;;1.63;1.45;;;21.90;43.90;;;;;;4962742;28;20053;-71
2022/11/23 08:23:30;;;;;;;1.20;1.10;;;21.90;43.80;;;;;;4978567;28;20054;-67
2022/11/23 08:25:57;;;;;;;6.80;1.35;;;21.90;43.80;;;;;;4996112;28;20061;-68
2022/11/23 08:28:24;;;;;;;1.30;1.10;;;21.90;43.80;;;;;;4994106;28;20055;-69
2022/11/23 08:30:51;;;;;;;1.33;1.23;;;22.00;43.90;;;;;;4995843;28;20511;-67
2022/11/23 08:33:18;;;;;;;1.67;1.35;;;22.00;43.90;;;;;;4995572;28;20061;-66
2022/11/23 08:35:45;;;;;;;1.85;1.27;;;22.00;43.90;;;;;;4996011;28;20050;-63
2022/11/23 08:38:12;;;;;;;1.77;1.20;;;22.10;43.90;;;;;;4995768;28;20047;-69
2022/11/23 08:40:39;;;;;;;2.55;1.50;;;22.10;44.20;;;;;;4995692;28;20065;-61
2022/11/23 08:43:06;;;;;;;2.95;1.33;;;22.10;44.40;;;;;;4995419;28;20057;-64
2022/11/23 08:45:34;;;;;;;1.80;1.27;;;22.20;44.50;;;;;;4997521;28;20054;-67
2022/11/23 08:48:02;;;;;;;3.63;1.50;;;22.20;44.50;;;;;;4997773;28;20056;-64
2022/11/23 08:50:30;;;;;;;1.10;1.02;;;22.30;44.60;;;;;;4981880;28;20050;-67
2022/11/23 09:00:35;;;;;;;1.95;1.52;;;22.40;44.20;;;;;;6028116;23;20183;-68
2022/11/23 09:03:03;;;;;;;3.58;1.77;;;22.50;44.20;;;;;;4983060;28;20042;-70
2022/11/23 09:05:30;;;;;;;2.70;1.70;;;22.50;44.20;;;;;;4981753;28;20050;-66
2022/11/23 09:08:01;;;;;;;4.03;1.27;;;22.50;44.10;;;;;;4999020;28;20051;-66
2022/11/23 09:10:28;;;;;;;4.70;1.88;;;22.60;44.40;;;;;;4999013;28;20134;-66
2022/11/23 09:12:55;;;;;;;5.88;1.65;;;22.60;43.90;;;;;;4998620;28;20643;-67
2022/11/23 09:15:22;;;;;;;1.90;1.45;;;22.60;43.80;;;;;;4998814;28;20050;-66
2022/11/23 09:17:49;;;;;;;3.63;1.35;;;22.70;43.60;;;;;;4999652;28;20408;-67
2022/11/23 09:20:17;;;;;;;2.22;2.03;;;22.70;43.60;;;;;;4999163;28;20060;-66
2022/11/23 09:22:53;;;;;;;4.38;1.65;;;22.70;43.60;;;;;;4998882;28;20046;-68
2022/11/23 09:25:21;;;;;;;3.15;1.75;;;22.80;43.60;;;;;;4999086;28;20061;-67
2022/11/23 09:27:55;;;;;;;4.90;1.65;;;22.80;43.60;;;;;;4980885;28;20130;-68
2022/11/23 09:30:22;;;;;;;3.25;1.70;;;22.80;43.50;;;;;;4998957;28;20050;-66
2022/11/23 09:32:49;;;;;;;2.65;1.60;;;22.80;43.40;;;;;;4981164;28;20058;-67
2022/11/23 09:35:16;;;;;;;1.80;1.63;;;22.90;43.30;;;;;;4998888;28;20058;-66
2022/11/23 09:37:43;;;;;;;3.03;1.95;;;22.90;43.30;;;;;;4998133;28;20052;-68
2022/11/23 09:40:16;;;;;;;2.28;1.40;;;22.90;43.30;;;;;;4998439;28;20484;-72
2022/11/23 09:43:16;;;;;;;1.85;1.40;;;23.00;43.40;;;;;;4981296;28;20046;-68
2022/11/23 09:45:52;;;;;;;4.00;1.50;;;23.00;43.20;;;;;;4998591;28;20050;-66
2022/11/23 09:48:36;;;;;;;3.13;1.98;;;23.00;43.20;;;;;;4997838;28;20046;-63
2022/11/23 09:51:16;;;;;;;1.95;1.55;;;23.10;43.10;;;;;;4998174;28;20054;-68
2022/11/23 09:53:55;;;;;;;4.18;1.65;;;23.00;42.90;;;;;;4998188;28;20046;-68
2022/11/23 09:56:26;;;;;;;1.50;1.40;;;23.10;42.80;;;;;;4998462;28;20417;-66
2022/11/23 09:58:56;;;;;;;1.58;1.48;;;23.00;42.70;;;;;;4997472;28;20046;-66
2022/11/23 10:01:26;;;;;;;3.25;1.40;;;23.00;42.60;;;;;;4981142;28;20057;-65
2022/11/23 10:03:54;;;;;;;2.38;1.65;;;23.00;42.70;;;;;;4997831;28;20050;-65
2022/11/23 10:06:28;;;;;;;1.90;1.55;;;23.10;42.80;;;;;;4997596;28;20501;-65
2022/11/23 10:09:05;;;;;;;2.92;1.52;;;23.00;42.80;;;;;;4997766;28;20137;-66
2022/11/23 10:12:12;;;;;;;1.92;1.80;;;23.10;42.80;;;;;;4980530;28;20042;-64
2022/11/23 10:23:33;;;;;;;2.28;1.45;;;23.10;42.80;;;;;;4990626;23;20058;-65
2022/11/23 10:26:00;;;;;;;1.80;1.25;;;23.10;42.70;;;;;;4977889;28;20057;-65
2022/11/23 10:28:31;;;;;;;1.75;1.38;;;23.10;42.70;;;;;;4975752;28;20058;-66
2022/11/23 10:31:14;;;;;;;1.85;1.60;;;23.10;42.70;;;;;;4958899;28;20047;-67
2022/11/23 10:33:59;;;;;;;1.60;1.38;;;23.20;42.60;;;;;;4958183;29;20490;-69
2022/11/23 10:36:26;;;;;;;1.60;1.13;;;23.10;42.40;;;;;;4958433;29;20134;-70
2022/11/23 10:38:58;;;;;;;2.45;0.98;;;23.20;42.30;;;;;;4957979;29;20414;-70
2022/11/23 10:45:22;;;;;;;3.63;1.42;;;23.20;42.10;;;;;;5086439;23;20101;-66
2022/11/23 10:47:53;;;;;;;2.58;1.35;;;23.20;42.10;;;;;;4976029;28;20150;-66
2022/11/23 10:50:26;;;;;;;1.42;1.10;;;23.20;42.00;;;;;;4996170;28;20072;-66
2022/11/23 10:53:00;;;;;;;1.55;1.15;;;23.20;41.90;;;;;;5011769;28;20054;-66
2022/11/23 10:55:31;;;;;;;5.22;1.15;;;23.20;41.90;;;;;;5011782;28;20054;-66
2022/11/23 10:57:59;;;;;;;1.92;1.23;;;23.20;41.90;;;;;;4996727;28;20433;-65
2022/11/23 11:00:28;;;;;;;1.35;1.25;;;23.20;42.00;;;;;;4996793;28;20058;-67
2022/11/23 11:02:57;;;;;;;;;;;23.30;42.10;;;;;;4998065;28;20047;-67
2022/11/23 11:05:48;;;;;;;1.48;1.10;;;23.30;42.10;;;;;;4996929;28;19928;-67
2022/11/23 11:08:51;;;;;;;2.47;1.60;;;23.30;42.00;;;;;;4995841;28;20112;-67
2022/11/23 11:11:27;;;;;;;2.53;1.02;;;23.30;42.00;;;;;;4996050;28;20537;-70
2022/11/23 11:18:30;;;;;;;2.90;1.35;;;23.30;41.80;;;;;;4989004;28;20046;-65
2022/11/23 11:28:59;;;;;;;1.58;1.48;;;23.20;41.60;;;;;;4954560;28;20100;-67
2022/11/23 11:31:45;;;;;;;2.20;1.33;;;23.30;41.70;;;;;;4994953;28;20060;-66
2022/11/23 11:34:29;;;;;;;1.63;1.52;;;23.20;41.70;;;;;;4993937;28;20042;-65
2022/11/23 11:37:21;;;;;;;1.80;1.42;;;23.20;41.70;;;;;;4983508;28;20133;-68
2022/11/23 11:39:52;;;;;;;1.33;1.23;;;23.20;41.80;;;;;;4975587;28;20073;-66
2022/11/23 11:42:29;;;;;;;3.20;1.55;;;23.20;41.90;;;;;;4976461;28;20058;-69
2022/11/23 11:44:59;;;;;;;1.75;1.38;;;23.20;41.90;;;;;;4977171;28;20065;-67
2022/11/23 11:47:46;;;;;;;1.90;1.50;;;23.20;41.90;;;;;;4990242;28;20042;-66
2022/11/23 11:50:22;;;;;;;2.40;1.60;;;23.20;41.90;;;;;;4995709;28;20308;-67
2022/11/23 11:53:09;;;;;;;2.45;1.95;;;23.20;41.90;;;;;;4995730;28;20054;-68
2022/11/23 11:55:56;;;;;;;1.63;1.45;;;23.20;41.90;;;;;;4989576;28;20062;-67
2022/11/23 11:58:26;;;;;;;3.22;1.90;;;23.20;42.00;;;;;;4993225;28;20042;-69
2022/11/23 12:13:04;;;;;;;1.33;1.23;;;23.30;41.90;;;;;;5341744;23;20548;-66
2022/11/23 12:15:39;;;;;;;3.90;1.98;;;23.30;42.00;;;;;;4965712;28;20481;-67
2022/11/23 12:18:47;;;;;;;2.33;1.45;;;23.30;42.40;;;;;;4975897;28;20103;-71
2022/11/23 12:21:40;;;;;;;6.35;2.25;;;23.30;42.60;;;;;;4976987;28;20046;-64
2022/11/23 12:24:32;;;;;;;2.30;1.80;;;23.30;42.70;;;;;;4976002;28;20384;-69
2022/11/23 12:27:29;;;;;;;2.45;1.80;;;23.30;42.60;;;;;;4973874;28;20046;-71
2022/11/23 12:34:26;;;;;;;4.53;2.70;;;23.40;42.50;;;;;;4985010;28;20066;-66
2022/11/23 12:37:48;;;;;;;2.92;1.80;;;23.30;42.30;;;;;;4970791;28;20050;-64
2022/11/23 12:45:03;;;;;;;2.30;1.92;;;23.30;42.20;;;;;;4942104;28;20046;-68
2022/11/23 12:47:56;;;;;;;5.03;2.28;;;23.30;41.90;;;;;;4962746;28;20554;-67
2022/11/23 12:50:44;;;;;;;3.67;2.38;;;23.30;41.80;;;;;;4976363;28;20057;-67
2022/11/23 13:00:22;;;;;;;2.83;2.15;;;23.30;42.10;;;;;;4967916;28;20074;-67
2022/11/23 13:03:28;;;;;;;2.45;2.25;;;23.30;42.00;;;;;;4965127;28;20035;-66
2022/11/23 13:06:26;;;;;;;2.28;2.00;;;23.30;41.90;;;;;;4972903;28;20055;-67
2022/11/23 13:21:05;;;;;;;2.03;1.83;;;23.30;41.60;;;;;;4968481;28;20488;-67
2022/11/23 13:23:37;;;;;;;3.38;2.47;;;23.30;41.60;;;;;;4945784;28;20417;-67
2022/11/23 13:26:16;;;;;;;2.58;2.10;;;23.30;41.60;;;;;;4959545;29;20051;-66
2022/11/23 13:28:45;;;;;;;4.75;2.30;;;23.20;41.50;;;;;;4959935;29;20073;-73
2022/11/23 13:31:19;;;;;;;3.53;2.17;;;23.20;41.60;;;;;;4959995;28;20126;-68
2022/11/23 13:33:48;;;;;;;4.30;2.30;;;23.20;41.70;;;;;;4958764;28;20051;-72
2022/11/23 13:37:12;;;;;;;2.70;2.03;;;23.20;41.80;;;;;;4965892;28;20055;-72
2022/11/23 13:40:22;;;;;;;3.40;2.60;;;23.20;41.90;;;;;;4977859;28;20039;-67
2022/11/23 13:55:35;;;;;;;2.30;1.95;;;23.10;41.90;;;;;;4976992;28;20051;-68
2022/11/23 13:58:34;;;;;;;4.38;2.20;;;23.10;42.20;;;;;;4980013;28;20086;-70
2022/11/23 14:01:01;;;;;;;2.63;2.15;;;23.10;42.00;;;;;;4978549;28;20416;-71
2022/11/23 14:10:22;;;;;;;2.55;1.90;;;23.20;42.50;;;;;;5798160;23;20062;-73
2022/11/23 14:13:08;;;;;;;4.15;2.17;;;23.20;42.50;;;;;;4961506;28;20058;-74
2022/11/23 14:15:50;;;;;;;2.28;1.90;;;23.20;42.60;;;;;;4977100;28;20066;-73
2022/11/23 14:18:49;;;;;;;3.95;2.20;;;23.30;42.50;;;;;;4961498;28;20047;-68
2022/11/23 14:22:20;;;;;;;7.05;1.83;;;23.30;42.30;;;;;;4977530;28;20049;-71
2022/11/23 14:25:26;;;;;;;3.17;2.28;;;23.30;42.10;;;;;;4977388;28;20104;-77
2022/11/23 14:35:45;;;;;;;2.03;1.60;;;23.30;42.90;;;;;;4987450;28;20085;-71
2022/11/23 14:38:32;;;;;;;;;;;23.30;42.80;;;;;;4961799;28;20082;-66
2022/11/23 14:51:31;;;;;;;5.43;2.10;;;23.40;43.00;;;;;;5447132;23;20050;-70
2022/11/23 14:54:20;;;;;;;2.38;1.92;;;23.40;42.80;;;;;;4961192;28;20413;-70
2022/11/23 15:00:40;;;;;;;3.25;2.15;;;23.40;42.60;;;;;;6085065;23;20393;-70
2022/11/23 15:03:15;;;;;;;3.17;2.20;;;23.40;42.50;;;;;;4980422;28;20050;-72
2022/11/23 15:06:13;;;;;;;5.18;2.10;;;23.40;42.40;;;;;;4977316;28;20046;-67
2022/11/23 15:12:46;;;;;;;2.60;1.95;;;23.50;42.30;;;;;;4971080;28;20050;-66
2022/11/23 15:15:22;;;;;;;5.38;2.10;;;23.60;43.00;;;;;;4977590;28;20047;-68
2022/11/23 15:17:51;;;;;;;3.00;1.88;;;23.60;42.40;;;;;;4977486;28;20572;-68
2022/11/23 15:20:21;;;;;;;2.90;2.13;;;23.60;42.50;;;;;;4960510;28;20051;-68
2022/11/23 15:22:48;;;;;;;3.58;2.63;;;23.60;42.60;;;;;;4977706;28;20051;-66
2022/11/23 15:25:18;;;;;;;6.07;2.65;;;23.60;42.50;;;;;;4977072;28;20051;-67
2022/11/23 15:27:50;;;;;;;11.07;3.10;;;23.60;42.50;;;;;;4944733;28;20053;-67
2022/11/23 15:37:45;;;;;;;9.38;3.10;;;23.50;42.80;;;;;;5077817;23;20049;-68
2022/11/23 15:40:22;;;;;;;5.43;2.47;;;23.50;42.90;;;;;;4960883;28;20042;-71
2022/11/23 15:42:50;;;;;;;5.85;2.45;;;23.50;42.90;;;;;;4957534;28;20060;-73